createdAt,value
2019-05-11T00:00:32.731Z,37.98
2019-05-11T00:02:59.298Z,40.70
2019-05-11T00:05:25.901Z,31.15
2019-05-11T00:07:52.137Z,39.13
2019-05-11T00:10:18.430Z,37.63
2019-05-11T00:12:44.615Z,38.45
2019-05-11T00:15:10.919Z,37.42
2019-05-11T00:17:37.475Z,38.90
2019-05-11T00:20:06.913Z,38.98
2019-05-11T00:22:33.316Z,42.98
2019-05-11T00:24:59.844Z,44.63
2019-05-11T00:27:26.090Z,40.67
2019-05-11T00:29:52.352Z,42.53
2019-05-11T00:32:22.616Z,39.38
2019-05-11T00:34:47.257Z,44.50
2019-05-11T00:37:13.842Z,49.67
2019-05-11T00:39:40.059Z,40.10
2019-05-11T00:42:06.329Z,38.05
2019-05-11T00:44:32.935Z,47.60
2019-05-11T00:46:59.188Z,47.38
2019-05-11T00:49:25.387Z,42.75
2019-05-11T00:51:51.654Z,38.65
2019-05-11T00:54:17.887Z,42.80
2019-05-11T00:56:44.119Z,47.38
2019-05-11T00:59:21.381Z,34.65
2019-05-11T01:01:39.019Z,37.85
2019-05-11T01:04:05.656Z,31.93
2019-05-11T01:06:32.321Z,27.75
2019-05-11T01:08:58.928Z,29.00
2019-05-11T01:11:25.167Z,29.37
2019-05-11T01:13:51.375Z,28.77
2019-05-11T01:16:17.629Z,31.68
2019-05-11T01:18:44.263Z,34.13
2019-05-11T01:21:10.877Z,28.52
2019-05-11T01:23:37.139Z,35.90
2019-05-11T01:26:03.350Z,36.70
2019-05-11T01:28:29.600Z,35.48
2019-05-11T01:30:55.814Z,35.70
2019-05-11T01:33:22.427Z,34.38
2019-05-11T01:35:51.083Z,36.45
2019-05-11T01:38:16.710Z,39.98
2019-05-11T01:40:57.762Z,37.65
2019-05-11T01:43:11.445Z,39.67
2019-05-11T01:45:37.777Z,37.53
2019-05-11T01:48:04.335Z,34.95
2019-05-11T01:50:30.539Z,32.90
2019-05-11T01:52:56.792Z,34.08
2019-05-11T01:55:23.424Z,35.65
2019-05-11T01:57:50.096Z,33.38
2019-05-11T02:00:16.877Z,35.80
2019-05-11T02:02:43.345Z,38.63
2019-05-11T02:05:28.518Z,35.80
2019-05-11T02:07:55.746Z,41.48
2019-05-11T02:10:22.181Z,41.05
2019-05-11T02:12:48.751Z,40.98
2019-05-11T02:15:15.348Z,43.45
2019-05-11T02:17:41.606Z,40.73
2019-05-11T02:20:07.924Z,47.05
2019-05-11T02:22:34.480Z,46.83
2019-05-11T02:25:01.104Z,44.08
2019-05-11T02:27:27.380Z,42.48
2019-05-11T02:29:53.965Z,49.63
2019-05-11T02:32:20.228Z,46.35
2019-05-11T02:34:46.835Z,44.23
2019-05-11T02:37:13.063Z,40.43
2019-05-11T02:39:39.808Z,47.13
2019-05-11T02:42:06.531Z,46.55
2019-05-11T02:44:33.015Z,53.70
2019-05-11T02:46:59.628Z,56.28
2019-05-11T02:49:28.130Z,49.95
2019-05-11T02:51:54.745Z,52.73
2019-05-11T02:54:21.268Z,51.95
2019-05-11T02:56:47.861Z,51.77
2019-05-11T02:59:14.441Z,60.03
2019-05-11T03:01:40.695Z,63.50
2019-05-11T03:04:06.940Z,52.15
2019-05-11T03:06:33.595Z,51.55
2019-05-11T03:08:59.802Z,60.80
2019-05-11T03:11:26.443Z,55.67
2019-05-11T03:13:53.064Z,60.45
2019-05-11T03:16:19.251Z,65.22
2019-05-11T03:18:45.531Z,54.83
2019-05-11T03:21:12.140Z,70.00
2019-05-11T03:23:38.397Z,58.70
2019-05-11T03:26:05.117Z,67.58
2019-05-11T03:28:31.708Z,56.65
2019-05-11T03:30:58.297Z,48.78
2019-05-11T03:33:25.077Z,51.73
2019-05-11T03:35:51.573Z,53.80
2019-05-11T03:38:17.796Z,52.80
2019-05-11T03:40:44.058Z,52.73
2019-05-11T03:43:10.680Z,57.58
2019-05-11T03:45:38.152Z,60.90
2019-05-11T03:48:04.782Z,57.50
2019-05-11T03:50:31.431Z,57.83
2019-05-11T03:52:58.023Z,64.05
2019-05-11T03:55:24.305Z,62.43
2019-05-11T03:57:50.915Z,62.55
2019-05-11T04:00:17.367Z,53.52
2019-05-11T04:02:43.665Z,47.53
2019-05-11T04:05:10.452Z,54.48
2019-05-11T04:07:37.048Z,61.90
2019-05-11T04:10:05.585Z,63.50
2019-05-11T04:12:35.173Z,55.28
2019-05-11T04:15:01.096Z,57.03
2019-05-11T04:17:27.802Z,58.17
2019-05-11T04:19:54.352Z,53.75
2019-05-11T04:22:20.748Z,56.40
2019-05-11T04:24:46.962Z,60.33
2019-05-11T04:27:18.929Z,59.93
2019-05-11T04:29:42.544Z,60.33
2019-05-11T04:32:08.782Z,54.27
2019-05-11T04:34:35.020Z,66.02
2019-05-11T04:37:01.745Z,56.68
2019-05-11T04:39:27.952Z,61.20
2019-05-11T04:41:54.080Z,56.25
2019-05-11T04:44:20.344Z,66.30
2019-05-11T04:46:46.956Z,51.70
2019-05-11T04:49:13.216Z,56.23
2019-05-11T04:51:39.821Z,47.17
2019-05-11T04:54:06.061Z,58.02
2019-05-11T04:56:32.713Z,53.98
2019-05-11T04:58:59.336Z,60.00
2019-05-11T05:01:25.700Z,51.73
2019-05-11T05:03:54.090Z,59.98
2019-05-11T05:06:23.995Z,54.35
2019-05-11T05:08:48.742Z,44.67
2019-05-11T05:11:14.975Z,47.23
2019-05-11T05:13:41.227Z,53.30
2019-05-11T05:16:07.436Z,53.87
2019-05-11T05:18:33.708Z,61.30
2019-05-11T05:21:00.318Z,44.93
2019-05-11T05:23:26.963Z,51.60
2019-05-11T05:25:53.580Z,47.80
2019-05-11T05:28:19.842Z,45.17
2019-05-11T05:30:46.470Z,46.88
2019-05-11T05:33:13.089Z,45.65
2019-05-11T05:35:39.343Z,48.10
2019-05-11T05:38:05.983Z,48.05
2019-05-11T05:40:32.619Z,42.83
2019-05-11T05:42:59.226Z,48.28
2019-05-11T05:45:25.501Z,43.08
2019-05-11T05:47:52.104Z,40.65
2019-05-11T05:50:18.486Z,42.80
2019-05-11T05:52:44.964Z,41.00
2019-05-11T05:55:11.286Z,45.98
2019-05-11T05:57:37.859Z,44.75
2019-05-11T06:00:05.571Z,49.70
2019-05-11T06:02:31.953Z,52.67
2019-05-11T06:04:58.567Z,51.15
2019-05-11T06:07:24.823Z,44.98
2019-05-11T06:09:50.933Z,56.48
2019-05-11T06:12:17.255Z,51.63
2019-05-11T06:14:43.607Z,48.20
2019-05-11T06:17:10.111Z,52.43
2019-05-11T06:19:36.439Z,61.50
2019-05-11T06:22:02.987Z,57.17
2019-05-11T06:24:29.219Z,55.58
2019-05-11T06:26:55.471Z,52.95
2019-05-11T06:29:22.098Z,53.73
2019-05-11T06:31:48.757Z,53.33
2019-05-11T06:34:14.938Z,55.90
2019-05-11T06:36:41.207Z,58.65
2019-05-11T06:39:07.907Z,55.80
2019-05-11T06:41:35.480Z,62.38
2019-05-11T06:44:02.468Z,54.80
2019-05-11T06:46:28.950Z,55.70
2019-05-11T06:48:55.231Z,54.20
2019-05-11T06:51:21.514Z,48.73
2019-05-11T06:53:47.660Z,56.15
2019-05-11T06:56:13.887Z,49.08
2019-05-11T06:58:40.091Z,55.00
2019-05-11T07:01:06.428Z,53.28
2019-05-11T07:03:32.990Z,58.73
2019-05-11T07:05:59.207Z,49.60
2019-05-11T07:08:25.461Z,50.03
2019-05-11T07:10:51.685Z,49.67
2019-05-11T07:13:17.920Z,44.63
2019-05-11T07:15:44.630Z,44.38
2019-05-11T07:18:11.195Z,51.25
2019-05-11T07:20:49.436Z,50.55
2019-05-11T07:23:05.671Z,53.83
2019-05-11T07:25:32.035Z,50.05
2019-05-11T07:27:58.536Z,43.00
2019-05-11T07:30:24.849Z,49.63
2019-05-11T07:32:50.991Z,44.55
2019-05-11T07:35:18.805Z,48.42
2019-05-11T07:37:47.712Z,45.55
2019-05-11T07:40:13.583Z,42.23
2019-05-11T07:42:39.783Z,41.65
2019-05-11T07:45:08.905Z,44.90
2019-05-11T07:47:37.783Z,41.83
2019-05-11T07:50:08.238Z,37.25
2019-05-11T07:52:34.327Z,42.55
2019-05-11T07:55:00.583Z,42.17
2019-05-11T07:57:28.364Z,42.95
2019-05-11T07:59:55.216Z,35.05
2019-05-11T08:02:21.568Z,37.55
2019-05-11T08:04:48.268Z,37.25
2019-05-11T08:07:14.723Z,42.50
2019-05-11T08:09:41.228Z,33.42
2019-05-11T08:12:08.996Z,31.42
2019-05-11T08:14:51.995Z,43.38
2019-05-11T08:17:03.396Z,34.15
2019-05-11T08:19:29.876Z,42.98
2019-05-11T08:21:58.237Z,42.43
2019-05-11T08:24:24.529Z,36.58
2019-05-11T08:26:50.731Z,42.23
2019-05-11T08:29:18.532Z,42.40
2019-05-11T08:31:48.618Z,35.50
2019-05-11T08:36:40.807Z,30.95
2019-05-11T08:39:07.863Z,35.75
2019-05-11T08:41:35.292Z,36.20
2019-05-11T08:44:01.416Z,31.57
2019-05-11T08:46:28.063Z,32.60
2019-05-11T08:48:54.366Z,26.85
2019-05-11T08:51:20.583Z,30.75
2019-05-11T08:53:48.038Z,29.98
2019-05-11T08:56:14.740Z,24.10
2019-05-11T08:58:40.951Z,27.07
2019-05-11T09:01:08.847Z,26.55
2019-05-11T09:03:35.499Z,32.30
2019-05-11T09:06:01.610Z,28.50
2019-05-11T09:08:28.458Z,25.30
2019-05-11T09:10:54.648Z,25.80
2019-05-11T09:13:20.781Z,20.20
2019-05-11T09:15:48.402Z,22.20
2019-05-11T09:18:14.951Z,22.30
2019-05-11T09:20:41.151Z,20.80
2019-05-11T09:23:08.254Z,18.55
2019-05-11T09:25:34.796Z,21.68
2019-05-11T09:28:00.909Z,23.07
2019-05-11T09:30:28.798Z,20.20
2019-05-11T09:32:55.076Z,19.62
2019-05-11T09:35:21.338Z,19.67
2019-05-11T09:37:48.455Z,23.83
2019-05-11T09:40:15.304Z,17.42
2019-05-11T09:42:41.517Z,18.05
2019-05-11T09:45:08.371Z,18.48
2019-05-11T09:47:34.593Z,21.97
2019-05-11T09:50:00.840Z,22.17
2019-05-11T09:52:32.243Z,20.75
2019-05-11T09:54:58.002Z,28.77
2019-05-11T09:57:24.410Z,19.15
2019-05-11T09:59:50.620Z,17.80
2019-05-11T10:02:20.411Z,16.60
2019-05-11T10:04:44.793Z,15.20
2019-05-11T10:07:11.366Z,15.60
2019-05-11T10:09:38.343Z,14.50
2019-05-11T10:12:05.014Z,15.68
2019-05-11T10:14:31.119Z,17.27
2019-05-11T10:16:58.442Z,12.68
2019-05-11T10:19:25.074Z,10.82
2019-05-11T10:21:51.446Z,13.53
2019-05-11T10:24:17.844Z,10.65
2019-05-11T10:26:44.467Z,11.12
2019-05-11T10:29:10.713Z,15.13
2019-05-11T10:31:38.579Z,11.08
2019-05-11T10:34:05.145Z,15.43
2019-05-11T10:36:31.414Z,11.60
2019-05-11T10:38:58.794Z,16.55
2019-05-11T10:41:25.470Z,11.22
2019-05-11T10:43:51.704Z,12.85
2019-05-11T10:46:23.080Z,11.93
2019-05-11T10:48:48.351Z,11.25
2019-05-11T10:51:14.395Z,10.58
2019-05-11T10:53:40.774Z,11.43
2019-05-11T10:56:08.778Z,13.18
2019-05-11T10:58:37.662Z,8.25
2019-05-11T11:01:03.649Z,10.38
2019-05-11T11:03:30.161Z,9.15
2019-05-11T11:05:58.052Z,11.50
2019-05-11T11:08:24.670Z,11.00
2019-05-11T11:10:50.803Z,13.35
2019-05-11T11:13:18.933Z,15.90
2019-05-11T11:15:45.451Z,13.15
2019-05-11T11:18:12.066Z,8.63
2019-05-11T11:20:38.542Z,10.28
2019-05-11T11:23:05.421Z,8.63
2019-05-11T11:25:31.582Z,10.55
2019-05-11T11:27:57.961Z,9.93
2019-05-11T11:30:24.682Z,8.48
2019-05-11T11:32:51.063Z,8.15
2019-05-11T11:35:18.721Z,8.18
2019-05-11T11:37:47.730Z,13.65
2019-05-11T11:40:17.617Z,7.92
2019-05-11T11:42:43.762Z,11.38
2019-05-11T11:45:11.471Z,9.55
2019-05-11T11:47:38.562Z,8.25
2019-05-11T11:50:09.167Z,14.33
2019-05-11T11:52:38.105Z,8.60
2019-05-11T11:55:10.306Z,11.50
2019-05-11T11:57:38.036Z,8.05
2019-05-11T12:00:09.189Z,10.25
2019-05-11T12:02:35.346Z,16.35
2019-05-11T12:05:03.346Z,9.23
2019-05-11T12:07:29.822Z,7.47
2019-05-11T12:09:58.583Z,6.87
2019-05-11T12:12:24.351Z,5.65
2019-05-11T12:14:50.967Z,8.95
2019-05-11T12:17:18.239Z,11.08
2019-05-11T12:19:44.657Z,6.80
2019-05-11T12:22:10.938Z,9.83
2019-05-11T12:24:37.635Z,13.03
2019-05-11T12:27:04.178Z,13.00
2019-05-11T12:29:30.784Z,12.70
2019-05-11T12:31:59.027Z,9.50
2019-05-11T12:34:25.294Z,8.33
2019-05-11T12:36:51.530Z,10.60
2019-05-11T12:39:19.195Z,10.45
2019-05-11T12:41:47.794Z,15.28
2019-05-11T12:44:13.932Z,15.78
2019-05-11T12:46:40.136Z,10.85
2019-05-11T12:49:07.848Z,14.20
2019-05-11T12:51:34.300Z,10.85
2019-05-11T12:54:00.487Z,7.97
2019-05-11T12:56:27.744Z,7.40
2019-05-11T12:58:54.174Z,9.30
2019-05-11T13:01:20.399Z,8.98
2019-05-11T13:03:49.222Z,6.92
2019-05-11T13:06:15.398Z,9.08
2019-05-11T13:08:41.992Z,10.48
2019-05-11T13:11:08.550Z,8.68
2019-05-11T13:13:34.687Z,10.05
2019-05-11T13:16:01.013Z,8.63
2019-05-11T13:18:27.945Z,9.78
2019-05-11T13:20:54.310Z,7.92
2019-05-11T13:23:20.502Z,12.28
2019-05-11T13:25:48.045Z,9.95
2019-05-11T13:28:14.617Z,7.85
2019-05-11T13:30:40.906Z,8.53
2019-05-11T13:33:08.587Z,10.78
2019-05-11T13:35:37.537Z,6.15
2019-05-11T13:38:03.692Z,6.10
2019-05-11T13:40:29.873Z,8.28
2019-05-11T13:42:58.083Z,8.30
2019-05-11T13:45:24.367Z,7.10
2019-05-11T13:47:55.457Z,11.45
2019-05-11T13:50:18.879Z,8.03
2019-05-11T13:52:45.115Z,4.72
2019-05-11T13:55:11.692Z,6.65
2019-05-11T13:57:38.939Z,8.53
2019-05-11T14:00:08.440Z,7.40
2019-05-11T14:02:34.780Z,7.42
2019-05-11T14:05:00.992Z,13.80
2019-05-11T14:07:27.655Z,10.72
2019-05-11T14:09:54.025Z,7.92
2019-05-11T14:12:20.269Z,11.10
2019-05-11T14:14:48.080Z,9.65
2019-05-11T14:17:14.379Z,11.83
2019-05-11T14:19:40.616Z,10.40
2019-05-11T14:22:08.627Z,9.35
2019-05-11T14:24:34.851Z,7.40
2019-05-11T14:27:00.978Z,10.18
2019-05-11T14:29:28.369Z,10.45
2019-05-11T14:31:55.042Z,17.92
2019-05-11T14:34:21.285Z,8.05
2019-05-11T14:36:48.028Z,14.60
2019-05-11T14:39:14.515Z,13.50
2019-05-11T14:41:40.750Z,11.25
2019-05-11T14:44:08.835Z,8.53
2019-05-11T14:46:34.962Z,12.73
2019-05-11T14:49:01.075Z,5.80
2019-05-11T14:51:28.270Z,5.37
2019-05-11T14:53:56.674Z,8.10
2019-05-11T14:56:22.763Z,7.40
2019-05-11T14:58:49.376Z,5.97
2019-05-11T15:01:18.091Z,4.58
2019-05-11T15:03:43.878Z,10.53
2019-05-11T15:06:10.014Z,4.22
2019-05-11T15:08:38.548Z,10.53
2019-05-11T15:11:04.337Z,4.75
2019-05-11T15:13:30.538Z,8.83
2019-05-11T15:15:58.539Z,6.33
2019-05-11T15:18:37.928Z,5.15
2019-05-11T15:20:52.707Z,5.53
2019-05-11T15:23:18.942Z,5.85
2019-05-11T15:25:45.058Z,2.42
2019-05-11T15:28:11.163Z,4.05
2019-05-11T15:30:38.465Z,2.92
2019-05-11T15:33:04.685Z,6.85
2019-05-11T15:35:31.025Z,7.37
2019-05-11T15:37:58.252Z,5.97
2019-05-11T15:40:27.775Z,5.12
2019-05-11T15:42:53.846Z,7.78
2019-05-11T15:45:20.078Z,8.30
2019-05-11T15:47:48.406Z,11.35
2019-05-11T15:50:15.903Z,6.08
2019-05-11T15:52:42.007Z,7.15
2019-05-11T15:55:09.510Z,8.00
2019-05-11T15:57:35.763Z,9.73
2019-05-11T16:00:04.069Z,6.37
2019-05-11T16:02:30.300Z,6.28
2019-05-11T16:04:58.251Z,6.53
2019-05-11T16:07:24.495Z,9.13
2019-05-11T16:09:50.914Z,7.25
2019-05-11T16:12:18.178Z,6.53
2019-05-11T16:14:44.910Z,12.63
2019-05-11T16:17:11.151Z,8.38
2019-05-11T16:19:38.028Z,8.33
2019-05-11T16:22:05.460Z,7.78
2019-05-11T16:24:31.738Z,9.58
2019-05-11T16:26:58.958Z,13.90
2019-05-11T16:29:27.960Z,11.38
2019-05-11T16:31:53.313Z,13.32
2019-05-11T16:34:19.545Z,9.65
2019-05-11T16:36:47.931Z,12.23
2019-05-11T16:39:13.914Z,6.45
2019-05-11T16:41:40.157Z,15.95
2019-05-11T16:44:07.834Z,5.67
2019-05-11T16:46:34.592Z,8.23
2019-05-11T16:49:01.949Z,14.07
2019-05-11T16:51:28.543Z,9.58
2019-05-11T16:53:54.933Z,10.85
2019-05-11T16:56:21.145Z,5.75
2019-05-11T16:58:48.457Z,17.10
2019-05-11T17:01:15.213Z,14.65
2019-05-11T17:03:41.458Z,8.48
2019-05-11T17:06:08.283Z,11.93
2019-05-11T17:08:35.061Z,9.93
2019-05-11T17:11:01.305Z,4.62
2019-05-11T17:13:27.531Z,9.48
2019-05-11T17:15:53.885Z,6.60
2019-05-11T17:18:20.217Z,10.45
2019-05-11T17:20:46.913Z,10.15
2019-05-11T17:23:13.150Z,10.15
2019-05-11T17:25:39.413Z,8.10
2019-05-11T17:28:09.248Z,7.33
2019-05-11T17:30:33.713Z,7.12
2019-05-11T17:32:59.992Z,10.25
2019-05-11T17:35:26.240Z,6.90
2019-05-11T17:37:52.461Z,7.40
2019-05-11T17:40:23.105Z,20.50
2019-05-11T17:42:48.047Z,9.33
2019-05-11T17:45:14.613Z,11.10
2019-05-11T17:47:40.898Z,9.03
2019-05-11T17:50:08.129Z,8.93
2019-05-11T17:52:34.538Z,8.83
2019-05-11T17:55:00.745Z,14.87
2019-05-11T17:57:27.788Z,10.60
2019-05-11T17:59:54.433Z,17.50
2019-05-11T18:02:20.760Z,11.38
2019-05-11T18:04:49.189Z,9.83
2019-05-11T18:07:25.081Z,11.38
2019-05-11T18:09:43.158Z,7.95
2019-05-11T18:12:09.857Z,8.75
2019-05-11T18:14:39.362Z,7.87
2019-05-11T18:17:04.600Z,12.43
2019-05-11T18:19:30.822Z,7.45
2019-05-11T18:21:57.760Z,14.45
2019-05-11T18:24:24.109Z,5.97
2019-05-11T18:26:50.461Z,8.58
2019-05-11T18:29:18.214Z,7.20
2019-05-11T18:31:44.549Z,12.18
2019-05-11T18:34:10.810Z,8.88
2019-05-11T18:36:38.229Z,5.50
2019-05-11T18:39:06.496Z,13.98
2019-05-11T18:41:33.355Z,6.25
2019-05-11T18:43:59.622Z,7.92
2019-05-11T18:46:27.887Z,10.15
2019-05-11T18:48:54.221Z,8.75
2019-05-11T18:51:20.518Z,6.05
2019-05-11T18:53:48.265Z,8.38
2019-05-11T18:56:15.454Z,7.55
2019-05-11T18:58:42.028Z,7.58
2019-05-11T19:01:08.633Z,9.23
2019-05-11T19:03:34.901Z,8.35
2019-05-11T19:06:01.249Z,10.35
2019-05-11T19:08:27.983Z,7.37
2019-05-11T19:10:54.813Z,7.53
2019-05-11T19:13:21.062Z,10.98
2019-05-11T19:15:48.745Z,12.15
2019-05-11T19:18:15.557Z,4.78
2019-05-11T19:20:45.820Z,6.37
2019-05-11T19:23:09.902Z,9.00
2019-05-11T19:25:37.523Z,8.33
2019-05-11T19:28:04.158Z,9.53
2019-05-11T19:30:30.510Z,9.28
2019-05-11T19:32:58.895Z,7.35
2019-05-11T19:35:24.816Z,6.78
2019-05-11T19:37:51.048Z,12.80
2019-05-11T19:40:17.308Z,6.97
2019-05-11T19:42:59.260Z,10.23
2019-05-11T19:45:29.349Z,10.90
2019-05-11T19:47:57.790Z,8.15
2019-05-11T19:50:24.116Z,6.83
2019-05-11T19:52:50.327Z,7.28
2019-05-11T19:55:17.893Z,8.15
2019-05-11T19:57:44.717Z,6.08
2019-05-11T20:00:11.951Z,9.50
2019-05-11T20:02:39.065Z,4.80
2019-05-11T20:05:06.018Z,5.78
2019-05-11T20:07:32.314Z,6.10
2019-05-11T20:09:58.560Z,11.65
2019-05-11T20:12:24.986Z,4.37
2019-05-11T20:14:51.457Z,6.50
2019-05-11T20:17:20.689Z,5.65
2019-05-11T20:19:48.910Z,7.00
2019-05-11T20:22:16.412Z,8.65
2019-05-11T20:24:42.690Z,5.42
2019-05-11T20:27:09.020Z,7.55
2019-05-11T20:29:35.299Z,9.10
2019-05-11T20:32:01.537Z,5.83
2019-05-11T20:34:29.010Z,12.07
2019-05-11T20:36:58.537Z,5.87
2019-05-11T20:39:24.569Z,9.53
2019-05-11T20:41:50.802Z,4.10
2019-05-11T20:44:17.948Z,10.65
2019-05-11T20:46:44.835Z,7.12
2019-05-11T20:49:11.479Z,4.12
2019-05-11T20:51:38.112Z,7.42
2019-05-11T20:54:04.772Z,8.03
2019-05-11T20:56:31.079Z,5.00
2019-05-11T20:58:59.336Z,3.27
2019-05-11T21:01:28.332Z,4.60
2019-05-11T21:03:54.662Z,13.85
2019-05-11T21:06:20.899Z,15.00
2019-05-11T21:08:48.260Z,5.95
2019-05-11T21:11:14.882Z,8.98
2019-05-11T21:13:41.724Z,4.72
2019-05-11T21:16:08.631Z,6.53
2019-05-11T21:18:35.258Z,4.90
2019-05-11T21:21:01.851Z,5.10
2019-05-11T21:23:29.006Z,8.55
2019-05-11T21:25:55.554Z,4.20
2019-05-11T21:28:22.166Z,6.92
2019-05-11T21:30:48.854Z,8.68
2019-05-11T21:33:17.754Z,7.65
2019-05-11T21:35:43.885Z,5.25
2019-05-11T21:38:10.390Z,9.30
2019-05-11T21:40:38.109Z,3.58
2019-05-11T21:43:08.520Z,7.92
2019-05-11T21:45:37.553Z,6.87
2019-05-11T21:48:03.497Z,12.98
2019-05-11T21:50:30.106Z,4.22
2019-05-11T21:52:58.783Z,4.58
2019-05-11T21:55:24.801Z,8.85
2019-05-11T21:57:51.283Z,9.30
2019-05-11T22:00:18.969Z,5.25
2019-05-11T22:02:45.384Z,4.78
2019-05-11T22:05:11.767Z,10.63
2019-05-11T22:07:38.717Z,6.47
2019-05-11T22:10:08.876Z,13.22
2019-05-11T22:12:35.317Z,14.45
2019-05-11T22:15:02.458Z,6.62
2019-05-11T22:17:30.817Z,6.35
2019-05-11T22:19:58.484Z,11.93
2019-05-11T22:22:25.649Z,4.83
2019-05-11T22:24:52.869Z,4.95
2019-05-11T22:27:19.517Z,7.28
2019-05-11T22:29:48.382Z,13.25
2019-05-11T22:32:14.437Z,13.62
2019-05-11T22:34:40.760Z,8.83
2019-05-11T22:37:08.645Z,8.00
2019-05-11T22:39:35.188Z,8.95
2019-05-11T22:42:01.806Z,6.78
2019-05-11T22:44:28.474Z,7.25
2019-05-11T22:46:55.088Z,7.55
2019-05-11T22:49:21.757Z,5.62
2019-05-11T22:51:48.453Z,8.75
2019-05-11T22:54:15.021Z,11.00
2019-05-11T22:56:41.641Z,4.22
2019-05-11T22:59:08.422Z,7.45
2019-05-11T23:01:35.021Z,8.88
2019-05-11T23:04:01.549Z,12.25
2019-05-11T23:06:27.830Z,5.95
2019-05-11T23:08:54.430Z,5.65
2019-05-11T23:11:21.103Z,11.15
2019-05-11T23:13:48.007Z,5.33
2019-05-11T23:16:14.778Z,4.15
2019-05-11T23:18:41.381Z,6.85
2019-05-11T23:21:08.732Z,4.90
2019-05-11T23:23:35.479Z,6.95
2019-05-11T23:26:01.732Z,6.00
2019-05-11T23:28:28.931Z,7.22
2019-05-11T23:30:55.433Z,4.67
2019-05-11T23:33:41.539Z,3.98
2019-05-11T23:36:07.994Z,6.95
2019-05-11T23:38:34.566Z,12.85
2019-05-11T23:41:01.321Z,14.78
2019-05-11T23:43:29.991Z,7.53
2019-05-11T23:45:57.752Z,5.03
2019-05-11T23:48:24.274Z,10.40
2019-05-11T23:50:50.524Z,7.45
2019-05-11T23:53:17.793Z,10.90
2019-05-11T23:55:44.731Z,9.50
2019-05-11T23:58:11.452Z,5.72
